Time;durP1;ratioP1;P1;durP2;ratioP2;P2;SDS_P1;SDS_P2;PMS_P1;PMS_P2;Temp;Humidity;BMP_temperature;BMP_pressure;BME280_temperature;BME280_humidity;BME280_pressure;Samples;Min_cycle;Max_cycle;Signal;HPM_P1;HPM_P2
2023/01/20 00:01:38;;;;;;;17.80;10.33;;;;;;;17.85;40.51;99735.97;5037063;28;20273;-63
2023/01/20 00:04:04;;;;;;;18.43;11.57;;;;;;;17.95;40.43;99731.56;4968479;28;20530;-63
2023/01/20 00:06:29;;;;;;;20.60;12.67;;;;;;;18.22;40.25;99738.84;5012082;28;20469;-63
2023/01/20 00:08:56;;;;;;;26.93;11.57;;;;;;;18.39;40.31;99741.91;4988195;28;20209;-63
2023/01/20 00:11:22;;;;;;;23.33;10.80;;;;;;;18.59;40.39;99751.88;4973577;28;20198;-63
2023/01/20 00:13:50;;;;;;;18.70;10.23;;;;;;;18.69;40.87;99751.16;5033056;28;20426;-64
2023/01/20 00:16:15;;;;;;;21.87;10.00;;;;;;;18.92;41.02;99751.75;5038562;28;20454;-63
2023/01/20 00:18:40;;;;;;;20.97;10.13;;;;;;;19.00;41.27;99750.59;4969609;28;20434;-64
2023/01/20 00:21:11;;;;;;;23.07;9.53;;;;;;;18.99;41.67;99751.81;4969853;28;20224;-63
2023/01/20 00:23:36;;;;;;;16.43;9.83;;;;;;;18.97;41.52;99751.38;4985998;28;20558;-64
2023/01/20 00:26:05;;;;;;;18.27;10.00;;;;;;;19.00;41.71;99755.47;4988903;28;20413;-64
2023/01/20 00:28:31;;;;;;;18.00;10.40;;;;;;;19.00;41.88;99759.16;4980601;28;20694;-63
2023/01/20 00:30:56;;;;;;;18.67;10.33;;;;;;;18.94;42.10;99763.63;4970433;28;20475;-63
2023/01/20 00:33:22;;;;;;;17.27;9.27;;;;;;;18.53;42.90;99761.22;4982028;28;20179;-63
2023/01/20 00:35:47;;;;;;;20.40;9.53;;;;;;;18.23;43.44;99761.31;4969220;28;20671;-63
2023/01/20 00:38:14;;;;;;;20.70;8.83;;;;;;;18.13;43.87;99764.03;4982681;28;20181;-63
2023/01/20 00:40:39;;;;;;;21.43;9.60;;;;;;;18.10;44.07;99762.78;4988914;28;20245;-63
2023/01/20 00:43:04;;;;;;;18.30;9.07;;;;;;;18.03;44.64;99771.28;4974183;28;20533;-63
2023/01/20 00:45:30;;;;;;;20.03;9.20;;;;;;;18.06;44.91;99779.03;4973666;28;20194;-63
2023/01/20 00:47:55;;;;;;;17.33;9.10;;;;;;;18.11;45.09;99784.41;5042950;28;20228;-63
2023/01/20 00:50:21;;;;;;;21.40;8.97;;;;;;;18.16;45.37;99786.91;4991691;28;20200;-64
2023/01/20 00:52:46;;;;;;;22.20;8.97;;;;;;;18.26;45.58;99780.50;4987877;28;20184;-64
2023/01/20 00:55:12;;;;;;;21.13;9.23;;;;;;;18.24;45.73;99782.94;4991873;28;20182;-64
2023/01/20 00:57:37;;;;;;;21.63;10.23;;;;;;;18.27;46.17;99781.34;5006000;28;20252;-63
2023/01/20 01:00:03;;;;;;;21.43;8.73;;;;;;;18.29;46.23;99778.91;5007123;28;20161;-63
2023/01/20 01:02:28;;;;;;;21.20;8.27;;;;;;;18.23;46.13;99781.31;5055584;28;20186;-63
2023/01/20 01:04:54;;;;;;;19.60;8.83;;;;;;;18.17;46.75;99787.75;5077542;28;20209;-63
2023/01/20 01:07:19;;;;;;;20.87;8.63;;;;;;;18.15;46.83;99788.13;5001751;28;20560;-63
2023/01/20 01:09:44;;;;;;;15.63;7.90;;;;;;;18.15;46.99;99793.84;4987624;28;20170;-62
2023/01/20 01:12:10;;;;;;;19.37;8.40;;;;;;;18.10;47.31;99791.34;4986712;28;20169;-63
2023/01/20 01:14:35;;;;;;;19.47;8.80;;;;;;;18.10;47.70;99794.19;5003656;28;20517;-63
2023/01/20 01:17:01;;;;;;;22.83;8.90;;;;;;;18.03;47.82;99808.41;4995666;28;20552;-63
2023/01/20 01:19:26;;;;;;;26.17;7.70;;;;;;;18.05;47.80;99808.00;4988414;28;20169;-63
2023/01/20 01:21:52;;;;;;;14.43;7.60;;;;;;;18.03;48.12;99811.25;4988647;28;20178;-63
2023/01/20 01:24:17;;;;;;;16.77;7.70;;;;;;;18.02;48.18;99815.31;4988503;28;20621;-63
2023/01/20 01:26:42;;;;;;;17.07;8.27;;;;;;;17.99;48.16;99810.41;4990376;28;20189;-63
2023/01/20 01:29:08;;;;;;;13.67;7.80;;;;;;;17.97;48.35;99817.69;4991671;28;20178;-63
2023/01/20 01:31:33;;;;;;;16.50;7.63;;;;;;;17.96;48.80;99816.88;4992756;28;20584;-63
2023/01/20 01:33:59;;;;;;;17.50;7.47;;;;;;;17.91;48.67;99824.97;4991813;28;20165;-63
2023/01/20 01:36:24;;;;;;;12.87;7.43;;;;;;;17.92;49.02;99832.31;4993997;28;20186;-63
2023/01/20 01:38:50;;;;;;;16.30;7.27;;;;;;;17.88;49.31;99829.44;4991554;28;20227;-62
2023/01/20 01:41:15;;;;;;;14.37;7.40;;;;;;;17.88;49.01;99832.28;4996408;28;20671;-63
2023/01/20 01:44:02;;;;;;;16.90;7.33;;;;;;;17.86;49.22;99843.25;4997298;28;20186;-63
2023/01/20 01:46:28;;;;;;;13.87;6.93;;;;;;;17.87;49.48;99833.50;5059773;28;20206;-63
2023/01/20 01:48:53;;;;;;;15.20;6.90;;;;;;;17.92;49.20;99843.75;5065377;28;20990;-63
2023/01/20 01:51:22;;;;;;;14.07;7.30;;;;;;;17.86;49.50;99848.16;5094244;28;20159;-62
2023/01/20 01:53:52;;;;;;;12.13;6.30;;;;;;;17.87;49.51;99847.78;5075855;28;20163;-62
2023/01/20 01:56:19;;;;;;;18.30;6.93;;;;;;;17.88;49.66;99848.59;5079649;28;20439;-63
2023/01/20 01:58:45;;;;;;;17.13;8.33;;;;;;;17.87;49.73;99852.66;5096115;28;20449;-63
2023/01/20 02:01:11;;;;;;;15.43;7.30;;;;;;;17.82;50.18;99844.44;5113342;28;20848;-63
2023/01/20 02:03:51;;;;;;;15.93;7.30;;;;;;;17.86;50.00;99846.09;5079918;28;20425;-63
2023/01/20 02:06:16;;;;;;;21.13;7.33;;;;;;;17.85;49.97;99855.91;5083123;28;20209;-63
2023/01/20 02:08:42;;;;;;;11.50;7.20;;;;;;;17.87;50.06;99853.50;5093706;28;20444;-62
2023/01/20 02:11:07;;;;;;;14.33;7.33;;;;;;;17.84;50.09;99850.56;5099591;28;20239;-63
2023/01/20 02:13:33;;;;;;;14.30;6.80;;;;;;;17.85;50.18;99855.09;5095968;28;20158;-63
2023/01/20 02:16:24;;;;;;;13.30;7.00;;;;;;;17.88;50.08;99851.44;5112207;28;20158;-63
2023/01/20 02:19:04;;;;;;;20.43;7.77;;;;;;;17.84;50.20;99850.56;5057726;28;20175;-63
2023/01/20 02:21:38;;;;;;;11.43;6.87;;;;;;;17.87;49.72;99850.63;5076373;28;20492;-62
2023/01/20 02:24:22;;;;;;;14.10;6.93;;;;;;;17.84;49.97;99862.00;5076503;28;21003;-62
2023/01/20 02:27:00;;;;;;;15.20;7.20;;;;;;;17.83;50.51;99857.50;5092668;28;20416;-63
2023/01/20 02:29:54;;;;;;;17.53;7.07;;;;;;;17.82;50.56;99862.41;5076506;28;20519;-63
2023/01/20 02:32:38;;;;;;;11.27;5.90;;;;;;;17.81;50.42;99860.72;5103560;28;20408;-63
2023/01/20 02:35:34;;;;;;;11.53;6.10;;;;;;;17.79;50.81;99879.47;5112845;28;20522;-62
2023/01/20 02:38:25;;;;;;;14.23;6.50;;;;;;;17.79;50.49;99877.44;5065818;28;20441;-63
2023/01/20 02:40:53;;;;;;;12.80;6.60;;;;;;;17.75;50.46;99870.84;5092278;28;20393;-63
2023/01/20 02:43:24;;;;;;;14.93;6.43;;;;;;;17.82;50.37;99873.81;5076950;28;20802;-63
2023/01/20 02:46:06;;;;;;;11.33;6.20;;;;;;;17.78;50.69;99875.78;5092363;28;20428;-63
2023/01/20 02:48:45;;;;;;;15.90;6.70;;;;;;;17.81;50.79;99880.72;5082271;28;20468;-62
2023/01/20 02:51:13;;;;;;;12.30;6.00;;;;;;;17.81;50.70;99886.44;5055290;28;20431;-63
2023/01/20 02:53:56;;;;;;;14.70;6.50;;;;;;;17.75;50.80;99882.25;5054759;28;20417;-63
2023/01/20 02:56:23;;;;;;;10.23;5.57;;;;;;;17.83;50.70;99892.59;5054680;28;20409;-63
2023/01/20 02:58:55;;;;;;;12.33;6.23;;;;;;;17.74;51.07;99889.19;5068846;28;20427;-62
2023/01/20 03:01:30;;;;;;;11.43;6.70;;;;;;;17.73;50.95;99896.13;5057397;28;20926;-62
2023/01/20 03:03:57;;;;;;;8.50;5.60;;;;;;;17.79;51.29;99899.44;5076536;28;20929;-62
2023/01/20 03:06:24;;;;;;;12.63;6.40;;;;;;;17.76;51.03;99901.03;5091531;28;20494;-63
2023/01/20 03:08:50;;;;;;;14.43;6.30;;;;;;;17.77;50.94;99899.84;5057412;28;20463;-63
2023/01/20 03:11:16;;;;;;;15.07;6.20;;;;;;;17.80;50.73;99909.69;5100559;28;20463;-62
2023/01/20 03:14:09;;;;;;;9.33;5.50;;;;;;;17.78;51.04;99906.38;5093797;28;20424;-63
2023/01/20 03:16:34;;;;;;;11.40;5.80;;;;;;;17.79;51.19;99908.84;5104224;28;20197;-63
2023/01/20 03:19:00;;;;;;;11.17;6.00;;;;;;;17.79;50.69;99908.84;5101529;28;20440;-63
2023/01/20 03:21:25;;;;;;;12.70;5.30;;;;;;;17.75;50.95;99922.22;5074107;28;20248;-62
2023/01/20 03:23:53;;;;;;;10.90;5.73;;;;;;;17.72;51.16;99920.16;5092428;28;20169;-63
2023/01/20 03:26:19;;;;;;;13.60;5.80;;;;;;;17.74;51.24;99914.88;5074247;28;20682;-63
2023/01/20 03:28:45;;;;;;;10.07;6.03;;;;;;;17.79;50.92;99920.25;5094038;28;20495;-63
2023/01/20 03:31:23;;;;;;;9.93;5.60;;;;;;;17.76;50.94;99921.03;5094978;28;20447;-63
2023/01/20 03:33:50;;;;;;;10.77;5.17;;;;;;;17.71;51.09;99918.50;5057736;28;20178;-63
2023/01/20 03:36:15;;;;;;;9.87;5.53;;;;;;;17.76;51.18;99926.72;5073907;28;20427;-63
2023/01/20 03:38:42;;;;;;;13.67;5.50;;;;;;;17.74;51.27;99929.16;5075557;28;20428;-63
2023/01/20 03:41:29;;;;;;;16.57;6.53;;;;;;;17.70;51.53;99939.69;5112160;28;20197;-63
2023/01/20 03:44:36;;;;;;;10.27;5.47;;;;;;;17.75;51.26;99942.22;5086996;28;20424;-63
2023/01/20 03:47:02;;;;;;;9.63;5.13;;;;;;;17.73;51.19;99944.66;5070941;28;20429;-63
2023/01/20 03:49:32;;;;;;;8.30;5.40;;;;;;;17.69;51.47;99948.63;4996034;28;20483;-63
2023/01/20 03:52:27;;;;;;;8.87;5.30;;;;;;;17.75;51.00;99947.94;4972263;28;20173;-63
2023/01/20 03:54:55;;;;;;;8.67;5.47;;;;;;;17.74;51.27;99954.84;4991941;28;20457;-62
2023/01/20 03:57:24;;;;;;;8.43;5.00;;;;;;;17.74;51.28;99957.72;5056422;28;20413;-63
2023/01/20 03:59:49;;;;;;;10.20;5.50;;;;;;;17.73;51.32;99961.78;5056477;28;20478;-63
2023/01/20 04:02:15;;;;;;;10.20;5.70;;;;;;;17.74;51.48;99960.56;5051865;28;20448;-62
2023/01/20 04:04:41;;;;;;;10.50;5.80;;;;;;;17.69;51.24;99958.03;5008471;28;20208;-63
2023/01/20 04:07:12;;;;;;;8.43;5.80;;;;;;;17.75;51.40;99961.41;4992472;28;20210;-62
2023/01/20 04:09:39;;;;;;;11.23;5.80;;;;;;;17.74;51.47;99963.41;5052875;28;20504;-63
2023/01/20 04:12:05;;;;;;;11.73;5.90;;;;;;;17.71;51.49;99969.09;5053950;28;20434;-63
2023/01/20 04:14:30;;;;;;;10.83;5.33;;;;;;;17.70;51.51;99973.97;4968841;28;20476;-62
2023/01/20 04:16:56;;;;;;;9.50;5.40;;;;;;;17.71;51.42;99975.59;4985918;28;20186;-63
2023/01/20 04:19:22;;;;;;;11.47;5.33;;;;;;;17.71;51.28;99978.44;5053825;28;20881;-63
2023/01/20 04:21:49;;;;;;;9.33;5.30;;;;;;;17.76;51.23;99986.69;5057471;28;20619;-63
2023/01/20 04:24:52;;;;;;;10.80;5.83;;;;;;;17.76;51.19;99995.25;5054601;28;20628;-63
2023/01/20 04:27:18;;;;;;;6.87;4.63;;;;;;;17.66;51.61;99995.09;4988583;28;20448;-62
2023/01/20 04:29:43;;;;;;;7.87;5.30;;;;;;;17.70;51.67;99996.78;4989072;28;20471;-63
2023/01/20 04:32:09;;;;;;;9.70;5.67;;;;;;;17.71;51.55;99989.88;4990890;28;20239;-63
2023/01/20 04:34:35;;;;;;;9.63;5.47;;;;;;;17.68;51.46;99999.22;5039235;28;20224;-63
2023/01/20 04:37:00;;;;;;;12.53;5.93;;;;;;;17.68;51.65;99995.53;5016790;28;20598;-62
2023/01/20 04:39:25;;;;;;;10.10;5.70;;;;;;;17.69;51.43;99997.16;4991242;28;20898;-62
2023/01/20 04:41:51;;;;;;;8.60;5.30;;;;;;;17.71;51.56;99997.63;5008216;28;20188;-63
2023/01/20 04:44:16;;;;;;;9.10;4.63;;;;;;;17.71;51.63;100003.34;5071108;28;20193;-63
2023/01/20 04:46:42;;;;;;;7.33;4.67;;;;;;;17.70;51.54;100007.41;5008262;28;20177;-63
2023/01/20 04:49:09;;;;;;;8.97;5.07;;;;;;;17.74;51.70;100002.56;5090992;28;20225;-62
2023/01/20 04:51:34;;;;;;;10.10;4.80;;;;;;;17.73;51.57;100000.91;5109485;28;20162;-63
2023/01/20 04:53:59;;;;;;;9.37;5.40;;;;;;;17.76;51.52;100012.38;5108938;28;20473;-62
2023/01/20 04:56:25;;;;;;;8.13;4.93;;;;;;;17.72;51.79;100010.69;5110813;28;20234;-63
2023/01/20 04:58:50;;;;;;;10.43;5.20;;;;;;;17.74;51.62;100013.97;5097551;28;20181;-62
2023/01/20 05:01:16;;;;;;;8.43;4.57;;;;;;;17.75;51.67;100016.47;5089865;28;20162;-63
2023/01/20 05:03:41;;;;;;;8.43;4.60;;;;;;;17.68;51.87;100009.81;5090516;28;20218;-63
2023/01/20 05:06:11;;;;;;;6.57;4.30;;;;;;;17.74;51.67;100022.53;5105747;28;20224;-62
2023/01/20 05:08:36;;;;;;;9.77;4.67;;;;;;;17.70;51.67;100016.78;5075993;28;20202;-62
2023/01/20 05:11:02;;;;;;;7.40;4.40;;;;;;;17.74;51.68;100025.41;5093796;28;20820;-63
2023/01/20 05:13:28;;;;;;;8.63;4.90;;;;;;;17.69;51.65;100029.41;5100141;28;20660;-63
2023/01/20 05:15:53;;;;;;;9.87;5.57;;;;;;;17.69;51.64;100035.13;5115424;28;20161;-63
2023/01/20 05:18:18;;;;;;;10.37;4.63;;;;;;;17.72;51.69;100031.50;5094847;28;20264;-63
2023/01/20 05:20:45;;;;;;;9.07;4.87;;;;;;;17.79;51.49;100039.34;5109157;28;20628;-62
2023/01/20 05:23:10;;;;;;;9.23;4.80;;;;;;;17.79;51.53;100039.34;5095814;28;20235;-63
2023/01/20 05:25:36;;;;;;;8.70;5.17;;;;;;;17.75;51.38;100036.44;5094049;28;20400;-63
2023/01/20 05:28:01;;;;;;;8.07;5.03;;;;;;;17.72;51.55;100037.22;5095937;28;20213;-62
2023/01/20 05:30:27;;;;;;;8.53;4.60;;;;;;;17.69;51.63;100046.53;5096430;28;20278;-63
2023/01/20 05:32:52;;;;;;;7.90;4.97;;;;;;;17.66;51.99;100049.34;5114604;28;20161;-62
2023/01/20 05:35:17;;;;;;;7.33;4.70;;;;;;;17.71;51.73;100046.16;5108650;28;20698;-62
2023/01/20 05:37:43;;;;;;;6.13;4.20;;;;;;;17.71;51.74;100054.72;5094478;28;20154;-62
2023/01/20 05:40:09;;;;;;;8.20;5.53;;;;;;;17.69;51.64;100052.25;5099246;28;20189;-62
2023/01/20 05:42:34;;;;;;;7.33;4.73;;;;;;;17.68;51.61;100058.34;5115019;28;20181;-62
2023/01/20 05:45:00;;;;;;;9.40;4.70;;;;;;;17.73;51.58;100066.59;5114889;28;20429;-63
2023/01/20 05:47:25;;;;;;;10.27;5.10;;;;;;;17.69;51.95;100082.81;5114460;28;20201;-62
2023/01/20 05:49:51;;;;;;;7.50;4.07;;;;;;;17.72;51.70;100068.63;5097539;28;20197;-63
2023/01/20 05:52:16;;;;;;;8.00;5.00;;;;;;;17.75;51.76;100076.41;5073874;28;20182;-62
2023/01/20 05:54:41;;;;;;;7.60;4.80;;;;;;;17.71;51.76;100086.13;5079557;28;20217;-63
2023/01/20 05:57:07;;;;;;;7.57;4.63;;;;;;;17.73;51.83;100092.28;5114379;28;20648;-63
2023/01/20 05:59:32;;;;;;;7.30;4.90;;;;;;;17.73;51.82;100098.81;5114465;28;20166;-63
2023/01/20 06:01:58;;;;;;;8.17;4.83;;;;;;;17.76;51.56;100094.38;5110162;28;20197;-63
2023/01/20 06:04:23;;;;;;;7.50;4.30;;;;;;;17.74;51.97;100096.78;5087183;28;20167;-62
2023/01/20 06:06:48;;;;;;;7.20;5.03;;;;;;;17.70;51.49;100105.28;5087987;28;20699;-62
2023/01/20 06:09:14;;;;;;;7.50;4.43;;;;;;;17.72;51.94;100107.75;5093590;28;20209;-62
2023/01/20 06:11:39;;;;;;;8.80;4.83;;;;;;;17.79;51.75;100107.88;5082201;28;20249;-62
2023/01/20 06:14:05;;;;;;;8.60;4.13;;;;;;;17.70;51.80;100116.69;5107534;28;20173;-62
2023/01/20 06:16:30;;;;;;;8.13;4.90;;;;;;;17.71;51.92;100109.78;5082202;28;20239;-62
2023/01/20 06:18:56;;;;;;;7.47;5.07;;;;;;;17.73;51.83;100117.97;5095731;28;20177;-63
2023/01/20 06:21:22;;;;;;;9.13;4.17;;;;;;;17.72;51.91;100119.19;5093718;28;20178;-62
2023/01/20 06:23:47;;;;;;;5.67;4.20;;;;;;;17.74;51.79;100119.63;5093442;28;20178;-63
2023/01/20 06:26:13;;;;;;;8.30;4.20;;;;;;;17.65;52.22;100119.88;5093554;28;20664;-62
2023/01/20 06:28:38;;;;;;;6.07;4.30;;;;;;;17.69;51.64;100115.06;5095804;28;20687;-63
2023/01/20 06:31:08;;;;;;;8.23;5.10;;;;;;;17.73;51.68;100121.66;5093030;28;20193;-62
2023/01/20 06:33:34;;;;;;;8.67;4.80;;;;;;;17.72;52.03;100119.19;5093291;28;20183;-63
2023/01/20 06:35:59;;;;;;;7.77;4.83;;;;;;;17.77;51.42;100119.72;5075264;28;20818;-63
2023/01/20 06:38:27;;;;;;;6.67;4.40;;;;;;;17.70;51.60;100118.75;5095087;28;20190;-63
2023/01/20 06:41:00;;;;;;;6.40;4.40;;;;;;;17.74;51.59;100123.31;5093319;28;20549;-62
2023/01/20 06:43:27;;;;;;;8.23;4.50;;;;;;;17.72;51.99;100124.91;5108768;28;20443;-62
2023/01/20 06:45:57;;;;;;;8.33;5.20;;;;;;;17.69;51.46;100132.19;5112995;28;20509;-62
2023/01/20 06:48:23;;;;;;;8.97;4.50;;;;;;;17.75;51.83;100130.66;5111025;28;20993;-63
2023/01/20 06:50:48;;;;;;;6.40;4.80;;;;;;;17.73;51.54;100133.09;5094839;28;20439;-63
2023/01/20 06:53:13;;;;;;;10.30;4.20;;;;;;;17.74;51.96;100139.59;5092946;28;20178;-63
2023/01/20 06:55:39;;;;;;;7.73;5.00;;;;;;;17.71;51.90;100135.47;5093013;28;20190;-62
2023/01/20 06:58:04;;;;;;;6.73;4.50;;;;;;;17.71;51.70;100135.47;5076090;28;20175;-63
2023/01/20 07:00:30;;;;;;;7.50;4.90;;;;;;;17.67;51.96;100139.47;5104276;28;20187;-63
2023/01/20 07:02:55;;;;;;;8.00;4.33;;;;;;;17.70;52.00;100142.41;5054410;28;20171;-63
2023/01/20 07:05:21;;;;;;;7.73;4.43;;;;;;;17.67;52.09;100153.75;5076368;28;20213;-62
2023/01/20 07:07:46;;;;;;;6.50;4.60;;;;;;;17.74;52.07;100157.56;5092580;28;20624;-63
2023/01/20 07:10:11;;;;;;;7.30;4.40;;;;;;;17.75;51.76;100166.97;5092828;28;20185;-63
2023/01/20 07:12:37;;;;;;;6.60;4.80;;;;;;;17.78;51.85;100164.19;5092353;28;20533;-62
2023/01/20 07:15:03;;;;;;;7.30;4.50;;;;;;;17.73;51.78;100167.34;5093677;28;20197;-62
2023/01/20 07:17:28;;;;;;;6.50;3.70;;;;;;;17.68;52.04;100164.81;5090065;28;20832;-63
2023/01/20 07:19:54;;;;;;;7.17;4.30;;;;;;;17.73;51.71;100172.22;5094540;28;20182;-63
2023/01/20 07:22:19;;;;;;;7.60;4.67;;;;;;;17.69;52.02;100177.88;5098110;28;20193;-63
2023/01/20 07:24:44;;;;;;;9.30;5.37;;;;;;;17.75;51.67;100179.19;5108408;28;20570;-63
2023/01/20 07:27:10;;;;;;;6.80;4.37;;;;;;;17.72;51.83;100184.84;5112280;28;20181;-62
2023/01/20 07:29:36;;;;;;;7.27;4.47;;;;;;;17.75;51.60;100186.97;5112724;28;20582;-62
2023/01/20 07:32:02;;;;;;;6.53;4.60;;;;;;;17.75;51.78;100182.06;5094572;28;20178;-63
2023/01/20 07:34:28;;;;;;;6.60;4.00;;;;;;;17.76;51.63;100183.69;5105692;28;20873;-62
2023/01/20 07:36:53;;;;;;;7.90;5.47;;;;;;;17.74;51.87;100194.69;5079225;28;20197;-63
2023/01/20 07:39:19;;;;;;;6.73;4.57;;;;;;;17.76;51.85;100194.31;5092154;28;20584;-62
2023/01/20 07:41:48;;;;;;;5.40;3.90;;;;;;;17.73;51.61;100207.31;5092096;28;20667;-62
2023/01/20 07:44:14;;;;;;;7.37;4.50;;;;;;;17.76;51.92;100203.69;5097984;28;20292;-63
2023/01/20 07:46:40;;;;;;;6.23;4.10;;;;;;;17.74;51.67;100208.97;5092081;28;20456;-62
2023/01/20 07:49:05;;;;;;;6.97;4.50;;;;;;;17.73;51.88;100210.19;5092754;28;20476;-63
2023/01/20 07:51:30;;;;;;;7.10;4.10;;;;;;;17.74;51.84;100223.25;5091799;28;20528;-63
2023/01/20 07:53:56;;;;;;;6.33;4.50;;;;;;;17.73;51.70;100233.03;5073613;28;20660;-63
2023/01/20 07:56:26;;;;;;;8.43;4.47;;;;;;;17.74;51.89;100234.66;5073522;28;20186;-63
2023/01/20 07:58:52;;;;;;;7.47;4.23;;;;;;;17.75;51.83;100229.78;5094034;28;20231;-63
2023/01/20 08:01:21;;;;;;;7.40;4.27;;;;;;;17.83;51.59;100246.69;5080358;28;20431;-62
2023/01/20 08:03:47;;;;;;;6.73;4.63;;;;;;;17.76;52.23;100249.38;5060698;28;20431;-63
2023/01/20 08:06:14;;;;;;;5.93;4.00;;;;;;;17.76;52.07;100257.94;5078365;28;20448;-62
2023/01/20 08:08:39;;;;;;;4.73;3.57;;;;;;;17.79;51.87;100262.06;5078793;28;20204;-62
2023/01/20 08:11:05;;;;;;;7.73;4.53;;;;;;;17.81;51.77;100260.50;5107714;28;20435;-63
2023/01/20 08:13:31;;;;;;;6.00;4.10;;;;;;;17.81;51.49;100273.97;5111944;28;20182;-62
2023/01/20 08:16:00;;;;;;;8.47;4.47;;;;;;;17.78;51.68;100266.97;5108076;28;20416;-62
2023/01/20 08:18:26;;;;;;;7.63;5.10;;;;;;;17.82;51.49;100273.59;5091198;28;20163;-62
2023/01/20 08:20:51;;;;;;;8.53;3.90;;;;;;;17.84;51.61;100271.16;5109509;28;20434;-62
2023/01/20 08:23:17;;;;;;;8.43;4.90;;;;;;;17.82;51.60;100270.75;5111498;28;20182;-62
2023/01/20 08:25:42;;;;;;;6.50;3.70;;;;;;;17.84;51.54;100273.19;5111916;28;20166;-63
2023/01/20 08:28:08;;;;;;;10.60;4.40;;;;;;;17.80;51.81;100280.88;5089913;28;20246;-62
2023/01/20 08:30:33;;;;;;;8.77;4.40;;;;;;;17.74;51.96;100283.19;5093675;28;20590;-63
2023/01/20 08:32:59;;;;;;;8.17;4.20;;;;;;;17.76;51.85;100286.50;5090996;28;20174;-62
2023/01/20 08:35:25;;;;;;;6.77;4.13;;;;;;;17.77;51.65;100287.34;5097529;28;20177;-62
2023/01/20 08:37:50;;;;;;;6.33;3.70;;;;;;;17.80;51.92;100287.41;5090831;28;20170;-62
2023/01/20 08:40:16;;;;;;;7.60;4.43;;;;;;;17.82;51.67;100295.59;5097203;28;20567;-63
2023/01/20 08:42:41;;;;;;;6.90;4.30;;;;;;;17.79;52.16;100299.19;5111866;28;20179;-63
2023/01/20 08:45:07;;;;;;;6.43;3.80;;;;;;;17.80;51.69;100304.53;5111513;28;20587;-63
2023/01/20 08:47:43;;;;;;;5.83;4.23;;;;;;;17.81;51.76;100305.38;5109725;28;20221;-62
2023/01/20 08:50:09;;;;;;;7.63;4.37;;;;;;;17.80;51.96;100300.88;5074473;28;20435;-62
2023/01/20 08:52:34;;;;;;;6.30;4.60;;;;;;;17.77;51.57;100318.75;5090966;28;20498;-63
2023/01/20 08:55:00;;;;;;;6.07;4.10;;;;;;;17.81;51.71;100313.94;5092684;28;21037;-62
2023/01/20 08:57:25;;;;;;;5.00;3.67;;;;;;;17.81;51.61;100311.91;5090444;28;20698;-62
2023/01/20 08:59:51;;;;;;;7.63;4.30;;;;;;;17.79;51.62;100320.03;5092212;28;20185;-62
2023/01/20 09:02:16;;;;;;;6.97;4.27;;;;;;;17.81;51.99;100323.31;5071107;28;20199;-62
2023/01/20 09:04:42;;;;;;;6.67;4.57;;;;;;;17.84;51.75;100321.75;5069863;28;20733;-63
2023/01/20 09:07:10;;;;;;;5.43;4.07;;;;;;;17.86;51.81;100320.16;5086548;28;20182;-62
2023/01/20 09:09:35;;;;;;;6.13;3.77;;;;;;;17.89;51.64;100327.16;5092938;28;20189;-62
2023/01/20 09:12:01;;;;;;;5.63;4.00;;;;;;;17.85;51.57;100335.66;5092291;28;20860;-62
2023/01/20 09:14:26;;;;;;;6.03;4.27;;;;;;;17.85;51.49;100340.56;5072515;28;20634;-62
2023/01/20 09:16:52;;;;;;;8.00;4.37;;;;;;;17.83;51.57;100338.06;5093120;28;20186;-63
2023/01/20 09:19:17;;;;;;;6.87;3.90;;;;;;;17.79;51.64;100334.31;5072438;28;20178;-62
2023/01/20 09:21:43;;;;;;;6.70;3.60;;;;;;;17.82;51.62;100345.00;5092997;28;20186;-63
2023/01/20 09:24:08;;;;;;;7.97;4.57;;;;;;;17.88;51.46;100352.03;5090701;28;20510;-62
2023/01/20 09:26:39;;;;;;;7.00;4.10;;;;;;;17.82;51.70;100341.28;5072629;28;20603;-62
2023/01/20 09:29:10;;;;;;;6.03;4.00;;;;;;;17.83;52.06;100343.78;5099767;28;20210;-62
2023/01/20 09:31:56;;;;;;;5.80;4.20;;;;;;;17.86;51.73;100345.88;5105840;28;20448;-62
2023/01/20 09:34:23;;;;;;;7.13;4.33;;;;;;;17.81;51.25;100348.22;5102913;28;20967;-63
2023/01/20 09:45:52;;;;;;;6.23;4.10;;;;;;;17.87;51.61;100367.53;5042622;28;20423;-63
2023/01/20 09:54:24;;;;;;;6.43;3.67;;;;;;;17.85;51.91;100375.63;5094529;28;20442;-62
2023/01/20 09:56:49;;;;;;;6.43;3.60;;;;;;;17.81;51.35;100374.72;5080084;28;20929;-62
2023/01/20 09:59:27;;;;;;;6.33;3.80;;;;;;;17.82;52.04;100379.25;5110418;28;20423;-63
2023/01/20 10:01:57;;;;;;;5.17;3.90;;;;;;;17.84;51.87;100382.56;5075913;28;20170;-62
2023/01/20 10:04:22;;;;;;;5.70;3.60;;;;;;;17.89;51.61;100382.25;5077781;28;20617;-62
2023/01/20 10:06:51;;;;;;;6.10;3.90;;;;;;;17.93;51.50;100386.03;5093425;28;21065;-62
2023/01/20 10:09:31;;;;;;;9.73;4.00;;;;;;;17.87;51.13;100381.81;5093987;28;20217;-62
2023/01/20 10:12:19;;;;;;;6.13;4.20;;;;;;;17.86;51.29;100387.91;5073566;28;20413;-62
2023/01/20 10:14:47;;;;;;;6.50;3.57;;;;;;;17.87;51.27;100392.41;5055880;28;20405;-64
2023/01/20 10:17:23;;;;;;;4.83;3.43;;;;;;;17.83;51.29;100389.47;5073538;28;20779;-64
2023/01/20 10:20:02;;;;;;;6.80;4.27;;;;;;;17.86;51.59;100388.69;5101238;28;20431;-63
2023/01/20 10:22:41;;;;;;;6.73;3.90;;;;;;;17.89;51.67;100396.53;5114245;28;20967;-63
2023/01/20 10:25:20;;;;;;;7.20;4.23;;;;;;;17.88;51.59;100389.16;5091232;28;20480;-63
2023/01/20 10:27:53;;;;;;;9.50;3.70;;;;;;;17.87;51.42;100390.38;5081747;28;20457;-63
2023/01/20 10:30:18;;;;;;;5.63;3.63;;;;;;;17.89;51.52;100389.97;5075169;28;20434;-63
2023/01/20 10:33:01;;;;;;;5.30;3.63;;;;;;;17.92;51.45;100390.09;5078728;28;21232;-63
2023/01/20 10:35:27;;;;;;;5.37;3.60;;;;;;;17.90;51.48;100388.81;5087996;28;20616;-63
2023/01/20 10:37:54;;;;;;;5.30;4.33;;;;;;;17.91;51.41;100384.75;5092454;28;20409;-64
2023/01/20 10:40:43;;;;;;;6.20;4.40;;;;;;;17.90;51.78;100385.94;5069496;28;20430;-63
2023/01/20 10:43:15;;;;;;;6.20;3.47;;;;;;;17.95;51.26;100382.75;5059112;28;20432;-64
2023/01/20 10:46:02;;;;;;;6.40;4.00;;;;;;;17.94;51.46;100387.66;5072803;28;20425;-63
2023/01/20 10:48:49;;;;;;;5.43;3.57;;;;;;;17.97;51.42;100389.75;5071617;28;20481;-62
2023/01/20 10:51:36;;;;;;;6.40;3.83;;;;;;;17.99;51.32;100389.38;5071694;28;20707;-63
2023/01/20 10:54:10;;;;;;;4.93;3.53;;;;;;;17.97;51.67;100384.03;5095668;28;20484;-63
2023/01/20 10:56:40;;;;;;;5.97;3.97;;;;;;;17.93;51.63;100385.19;5093646;28;20919;-63
2023/01/20 10:59:14;;;;;;;4.40;3.30;;;;;;;17.97;51.73;100389.75;5037247;28;20413;-63
2023/01/20 11:01:40;;;;;;;6.20;4.10;;;;;;;17.96;51.23;100387.31;5090189;28;21166;-64
2023/01/20 11:04:08;;;;;;;5.07;3.70;;;;;;;17.96;51.75;100390.97;5074245;28;20412;-63
2023/01/20 11:06:33;;;;;;;5.63;3.40;;;;;;;17.96;51.37;100393.81;5065543;28;20297;-61
2023/01/20 11:09:07;;;;;;;7.23;3.40;;;;;;;17.98;51.26;100391.44;5094866;28;20435;-62
2023/01/20 11:11:32;;;;;;;5.83;3.70;;;;;;;17.97;51.86;100392.63;5092480;28;20710;-62
2023/01/20 11:13:58;;;;;;;5.47;3.97;;;;;;;18.00;51.37;100394.72;5093369;28;20421;-61
2023/01/20 11:16:25;;;;;;;7.17;4.00;;;;;;;17.99;51.61;100390.22;5075363;28;20181;-62
2023/01/20 11:18:57;;;;;;;5.33;3.73;;;;;;;18.01;51.60;100401.28;5103900;28;20698;-63
2023/01/20 11:21:23;;;;;;;6.77;4.00;;;;;;;18.03;51.65;100398.88;5113235;28;20859;-62
2023/01/20 11:23:51;;;;;;;6.90;3.50;;;;;;;18.01;51.48;100402.09;5094447;28;20407;-63
2023/01/20 11:26:19;;;;;;;5.33;3.40;;;;;;;18.03;51.26;100399.72;5110740;28;20478;-62
2023/01/20 11:29:01;;;;;;;4.43;3.20;;;;;;;18.01;51.87;100390.66;5093190;28;20498;-62
2023/01/20 11:31:37;;;;;;;4.67;3.53;;;;;;;17.97;51.58;100397.53;5074939;28;20563;-61
2023/01/20 11:34:28;;;;;;;5.77;3.60;;;;;;;17.98;51.81;100402.03;5092488;28;20844;-61
2023/01/20 11:37:03;;;;;;;5.10;3.27;;;;;;;18.01;51.57;100399.22;5092146;28;20830;-60
2023/01/20 11:39:41;;;;;;;6.57;3.80;;;;;;;18.00;51.37;100399.59;5108602;28;20427;-60
2023/01/20 11:42:15;;;;;;;7.40;3.37;;;;;;;18.01;51.24;100395.56;5094464;28;20565;-60
2023/01/20 11:44:48;;;;;;;5.90;3.57;;;;;;;18.03;51.36;100398.88;5110220;28;20421;-60
2023/01/20 11:47:27;;;;;;;5.30;3.57;;;;;;;17.98;51.44;100390.59;5107450;28;20431;-60